Главная страница
METAR-TAF:

METAR-TAF

Аэропорты :

Алжир, Алжир

Аэропорт Хуари Бумедьен

широта: 36-43N, долгота: 003-15E, высота над уровнем моря: 25 м

Текущие метеонаблюдения

Эта сводка был подготовлена 48 минут назад, в 07:00 UTC
Ветер 1 Узел от юго-юго-восточный
Температура 4°C
Влажность 100%
Давление 1028 hPa
Видимость: 1200 м
небольшая облачность на высоте 600 фута
дымка

METAR: DAAG 240700Z 16001KT 1200 R05/0400V1400D R09/P2000D BR FEW006 04/04 Q1028

Время: 08:48 (07:48 UTC)

Прогноз

Эта сводка был подготовлена 2 часа и 48 минут назад, в 05:00 UTC
Прогноз действительный с 24-го 06 UTC до 25-го 06 UTC
Ветер 2 Узел переменных направлений
Видимость: 0600 м
Отдельные облака на высоте 800 фута
туман
изменения
С 24-го 06 UTC до 24-го 07 UTC
Видимость: 3000 м
дымка
изменения
С 24-го 07 UTC до 24-го 10 UTC
Видимость 10 км и более
Нет облачности ниже 1500 м, и нет кучево-дождевой облачности

TAF: DAAG 240500Z 2406/2506 VRB02KT 0600 FG SCT008 BECMG 2406/2407 3000 BR BECMG 2407/2410 CAVOK

Метеонаблюдения и прогнозы для более 4000 аэропортов (сводки METAR и TAF).

Имеющиеся станции представлены на карте желтыми и красными точками.

Чтобы увидеть название станции, наведите на нее мышь.

Затем щелкните, чтобы увидеть метеонаблюдения и метеопрогнозы.

Управление картой: чтобы увеличить масштаб, щелкните зеленые кнопки с черным крестиком; чтобы уменьшить масштаб, щелкните зеленую кнопку с тире; для просмотра соседних карт щелкайте зеленые стрелки.


METAR-TAF: